Aviation Digital Data Service (ADDS)

Output produced by METARs form (1825 UTC 22 November 2017)
found at http://www.aviationweather.gov/adds/metars/
 
KJAC 221725Z 2218/2318 20010KT P6SM VCFG FEW005 OVC030 
     TEMPO 2218/2222 3SM -RA BR SCT005 OVC025 
     FM222200 21010KT P6SM VCSH SCT020 OVC035 
     FM230000 VRB05KT P6SM SCT030 BKN050 
     FM230600 VRB05KT P6SM VCFG FEW005 SCT050 AMD LTD TO CLD VIS AND WIND
       
KJAN 221726Z 2218/2318 01012G19KT P6SM SKC 
     FM222300 35008KT P6SM SKC
       
KJAX 221720Z 2218/2318 05006KT P6SM SCT035 
     FM222300 05005KT P6SM OVC018 
     FM230900 02005KT 4SM -RA BR OVC010 
     FM231200 03010KT 4SM -RA BR OVC007
       
KJBR 221729Z 2218/2318 04009KT P6SM SKC 
     FM230200 VRB02KT P6SM SKC 
     FM231400 22006KT P6SM SKC
       
KJFK 221730Z 2218/2324 32011G18KT P6SM BKN050 
     FM221900 33018G27KT P6SM SCT060 
     TEMPO 2219/2220 BKN060 
     FM222300 33019G27KT P6SM SKC 
     FM230400 32014KT P6SM SKC 
     FM230700 32008KT P6SM SKC 
     FM231400 30008KT P6SM SCT250 
     FM231900 27008KT P6SM SCT150 SCT250
       
KJER 221720Z 2218/2318 03006KT P6SM SCT100 BKN200 
     FM230200 05014KT P6SM BKN200
       
KJHW 221734Z 2218/2318 32007KT P6SM -SN FEW015 OVC020 
     FM230400 31005KT P6SM BKN030 
     FM231400 22009KT P6SM OVC050 AMD LTD TO CLD VIS AND WIND
       
KJMS 221727Z 2218/2318 19015G23KT P6SM -FZRA OVC050 
     FM222000 24012KT P6SM SCT070 BKN130 
     FM222300 31009KT P6SM FEW200 
     FM230900 22004KT 5SM BR FEW001 SCT250 
     FM231500 19007KT P6SM SCT050
       
KJST 221742Z 2218/2318 30012KT P6SM BKN016 OVC021 
     FM230100 31010KT P6SM OVC050 
     FM230300 27006KT P6SM BKN250